createdAt,value
2019-03-04T00:01:52.988Z,2.73
2019-03-04T00:04:21.631Z,2.87
2019-03-04T00:06:50.175Z,2.37
2019-03-04T00:09:18.901Z,2.60
2019-03-04T00:11:47.453Z,2.23
2019-03-04T00:14:16.042Z,2.30
2019-03-04T00:16:44.728Z,2.10
2019-03-04T00:19:13.287Z,2.60
2019-03-04T00:21:41.864Z,2.50
2019-03-04T00:24:10.414Z,2.50
2019-03-04T00:26:38.997Z,2.93
2019-03-04T00:29:07.544Z,2.67
2019-03-04T00:31:36.298Z,2.37
2019-03-04T00:34:04.845Z,2.40
2019-03-04T00:36:33.441Z,4.60
2019-03-04T00:39:02.060Z,3.50
2019-03-04T00:41:30.652Z,5.07
2019-03-04T00:43:59.261Z,3.23
2019-03-04T00:46:27.848Z,3.07
2019-03-04T00:48:56.413Z,4.23
2019-03-04T00:51:25.005Z,4.17
2019-03-04T00:53:53.560Z,3.63
2019-03-04T00:56:22.106Z,2.80
2019-03-04T00:58:50.686Z,2.80
2019-03-04T01:01:19.305Z,2.70
2019-03-04T01:03:47.897Z,2.40
2019-03-04T01:06:16.443Z,2.33
2019-03-04T01:08:45.024Z,2.57
2019-03-04T01:11:13.852Z,2.93
2019-03-04T01:13:42.504Z,2.83
2019-03-04T01:16:11.128Z,2.70
2019-03-04T01:18:39.687Z,2.60
2019-03-04T01:21:08.478Z,2.50
2019-03-04T01:23:37.105Z,2.60
2019-03-04T01:26:05.771Z,2.43
2019-03-04T01:28:34.396Z,2.27
2019-03-04T01:31:02.990Z,2.97
2019-03-04T01:33:31.654Z,2.33
2019-03-04T01:36:00.188Z,2.47
2019-03-04T01:38:28.767Z,2.60
2019-03-04T01:40:57.392Z,2.63
2019-03-04T01:43:25.936Z,2.23
2019-03-04T01:45:54.599Z,2.20
2019-03-04T01:48:23.140Z,2.17
2019-03-04T01:50:51.728Z,2.17
2019-03-04T01:53:20.288Z,2.20
2019-03-04T01:55:48.861Z,2.33
2019-03-04T01:58:17.421Z,2.40
2019-03-04T02:00:46.005Z,2.10
2019-03-04T02:03:14.628Z,2.43
2019-03-04T02:05:43.372Z,2.30
2019-03-04T02:08:11.957Z,2.30
2019-03-04T02:10:40.604Z,2.07
2019-03-04T02:13:09.300Z,2.23
2019-03-04T02:15:37.989Z,2.20
2019-03-04T02:18:06.707Z,2.40
2019-03-04T02:20:35.253Z,1.83
2019-03-04T02:23:03.960Z,2.30
2019-03-04T02:25:41.589Z,2.13
2019-03-04T02:28:10.168Z,2.40
2019-03-04T02:30:38.862Z,2.30
2019-03-04T02:33:07.602Z,2.47
2019-03-04T02:35:36.273Z,1.90
2019-03-04T02:38:04.922Z,2.30
2019-03-04T02:40:33.474Z,2.10
2019-03-04T02:43:02.061Z,2.13
2019-03-04T02:45:30.610Z,2.33
2019-03-04T02:47:59.305Z,2.17
2019-03-04T02:50:27.929Z,2.23
2019-03-04T02:52:56.493Z,2.23
2019-03-04T02:55:25.138Z,2.57
2019-03-04T02:57:53.754Z,2.47
2019-03-04T03:00:22.472Z,2.60
2019-03-04T03:02:51.033Z,3.17
2019-03-04T03:05:19.685Z,2.40
2019-03-04T03:07:48.246Z,2.20
2019-03-04T03:10:16.961Z,2.10
2019-03-04T03:12:45.521Z,2.00
2019-03-04T03:15:16.371Z,1.93
2019-03-04T03:17:45.020Z,1.77
2019-03-04T03:20:14.613Z,1.73
2019-03-04T03:22:43.334Z,1.93
2019-03-04T03:25:13.522Z,2.10
2019-03-04T03:27:42.168Z,2.00
2019-03-04T03:30:15.776Z,2.37
2019-03-04T03:32:50.644Z,2.40
2019-03-04T03:35:26.588Z,2.73
2019-03-04T03:37:54.427Z,2.63
2019-03-04T03:40:23.061Z,2.50
2019-03-04T03:42:51.723Z,2.00
2019-03-04T03:45:20.393Z,2.37
2019-03-04T03:47:48.964Z,2.33
2019-03-04T03:50:18.155Z,2.70
2019-03-04T03:52:46.987Z,2.20
2019-03-04T03:55:27.023Z,2.10
2019-03-04T03:57:58.057Z,2.40
2019-03-04T04:00:26.975Z,2.13
2019-03-04T04:02:55.562Z,2.60
2019-03-04T04:05:24.105Z,2.13
2019-03-04T04:07:52.649Z,2.50
2019-03-04T04:10:21.871Z,2.27
2019-03-04T04:12:50.559Z,2.20
2019-03-04T04:15:20.543Z,2.60
2019-03-04T04:17:49.190Z,2.73
2019-03-04T04:20:17.912Z,2.60
2019-03-04T04:22:46.538Z,2.63
2019-03-04T04:25:15.785Z,2.47
2019-03-04T04:27:44.513Z,2.40
2019-03-04T04:30:25.058Z,2.37
2019-03-04T04:32:53.714Z,2.77
2019-03-04T04:35:22.333Z,2.50
2019-03-04T04:37:50.886Z,2.30
2019-03-04T04:40:19.537Z,2.40
2019-03-04T04:42:48.080Z,2.20
2019-03-04T04:45:16.628Z,2.40
2019-03-04T04:47:45.334Z,2.10
2019-03-04T04:50:16.910Z,1.87
2019-03-04T04:52:45.484Z,2.07
2019-03-04T04:55:14.177Z,1.87
2019-03-04T04:57:42.827Z,2.20
2019-03-04T05:00:21.748Z,2.17
2019-03-04T05:02:50.325Z,2.40
2019-03-04T05:05:18.946Z,2.10
2019-03-04T05:07:47.601Z,2.03
2019-03-04T05:10:20.673Z,2.37
2019-03-04T05:12:49.389Z,1.97
2019-03-04T05:15:18.584Z,2.10
2019-03-04T05:17:47.196Z,2.10
2019-03-04T05:20:21.438Z,2.13
2019-03-04T05:22:50.057Z,2.00
2019-03-04T05:25:18.769Z,2.00
2019-03-04T05:27:47.322Z,2.27
2019-03-04T05:30:18.511Z,2.07
2019-03-04T05:32:47.238Z,2.10
2019-03-04T05:35:15.924Z,2.37
2019-03-04T05:37:44.839Z,2.03
2019-03-04T05:40:21.317Z,2.10
2019-03-04T05:42:49.921Z,2.20
2019-03-04T05:45:19.447Z,2.20
2019-03-04T05:47:48.130Z,2.43
2019-03-04T05:50:24.569Z,2.30
2019-03-04T05:52:53.185Z,2.33
2019-03-04T05:55:21.769Z,2.30
2019-03-04T05:57:50.401Z,2.50
2019-03-04T06:00:22.768Z,2.70
2019-03-04T06:02:53.860Z,2.87
2019-03-04T06:05:22.520Z,2.57
2019-03-04T06:07:52.710Z,2.80
2019-03-04T06:10:21.248Z,2.67
2019-03-04T06:12:49.841Z,3.60
2019-03-04T06:15:20.633Z,2.93
2019-03-04T06:17:49.353Z,2.73
2019-03-04T06:20:20.637Z,3.40
2019-03-04T06:22:49.294Z,3.73
2019-03-04T06:25:23.024Z,3.37
2019-03-04T06:27:51.610Z,3.13
2019-03-04T06:30:22.635Z,3.20
2019-03-04T06:32:51.320Z,2.97
2019-03-04T06:35:20.012Z,3.63
2019-03-04T06:37:48.742Z,3.30
2019-03-04T06:40:18.829Z,3.20
2019-03-04T06:42:47.486Z,3.30
2019-03-04T06:45:17.769Z,2.90
2019-03-04T06:47:46.354Z,3.27
2019-03-04T06:50:43.553Z,2.80
2019-03-04T06:53:12.125Z,2.50
2019-03-04T06:56:05.049Z,2.80
2019-03-04T06:58:51.773Z,3.30
2019-03-04T07:01:23.396Z,3.00
2019-03-04T07:03:55.055Z,2.63
2019-03-04T07:06:23.610Z,2.60
2019-03-04T07:08:55.258Z,2.40
2019-03-04T07:11:23.825Z,2.53
2019-03-04T07:13:52.365Z,5.40
2019-03-04T07:16:21.008Z,4.90
2019-03-04T07:18:49.628Z,4.73
2019-03-04T07:21:18.348Z,3.30
2019-03-04T07:23:47.068Z,2.00
2019-03-04T07:26:15.850Z,1.73
2019-03-04T07:28:44.892Z,2.33
2019-03-04T07:31:13.540Z,1.90
2019-03-04T07:33:42.156Z,2.00
2019-03-04T07:36:10.806Z,2.00
2019-03-04T07:38:48.289Z,2.07
2019-03-04T07:41:16.833Z,2.00
2019-03-04T07:43:45.385Z,1.73
2019-03-04T07:46:14.049Z,2.10
2019-03-04T07:48:42.744Z,1.83
2019-03-04T07:51:16.710Z,2.17
2019-03-04T07:53:46.903Z,2.03
2019-03-04T07:56:15.760Z,2.27
2019-03-04T07:58:44.378Z,2.27
2019-03-04T08:01:13.262Z,2.20
2019-03-04T08:03:41.989Z,2.03
2019-03-04T08:06:10.687Z,1.97
2019-03-04T08:08:40.950Z,1.87
2019-03-04T08:11:32.076Z,1.83
2019-03-04T08:14:06.344Z,1.93
2019-03-04T08:16:36.339Z,1.80
2019-03-04T08:19:05.269Z,1.80
2019-03-04T08:21:33.824Z,1.40
2019-03-04T08:24:02.649Z,1.37
2019-03-04T08:26:31.473Z,1.60
2019-03-04T08:29:00.130Z,1.70
2019-03-04T08:31:28.833Z,1.60
2019-03-04T08:33:57.674Z,1.70
2019-03-04T08:36:26.351Z,1.20
2019-03-04T08:38:54.957Z,1.40
2019-03-04T08:41:23.582Z,1.73
2019-03-04T08:43:52.165Z,1.33
2019-03-04T08:46:20.857Z,1.30
2019-03-04T08:48:49.444Z,1.13
2019-03-04T08:51:18.176Z,1.03
2019-03-04T08:53:46.726Z,0.80
2019-03-04T08:56:15.512Z,0.90
2019-03-04T08:58:44.022Z,0.80
2019-03-04T09:01:12.780Z,0.80
2019-03-04T09:03:41.619Z,0.87
2019-03-04T09:06:10.268Z,0.70
2019-03-04T09:08:39.121Z,1.07
2019-03-04T09:11:07.934Z,0.80
2019-03-04T09:13:36.913Z,1.20
2019-03-04T09:16:05.817Z,0.80
2019-03-04T09:18:34.601Z,0.80
2019-03-04T09:21:03.221Z,1.00
2019-03-04T09:23:31.974Z,1.00
2019-03-04T09:26:06.278Z,0.87
2019-03-04T09:28:35.768Z,0.87
2019-03-04T09:31:04.493Z,1.10
2019-03-04T09:33:33.171Z,0.90
2019-03-04T09:36:01.796Z,1.20
2019-03-04T09:38:30.568Z,0.83
2019-03-04T09:40:59.280Z,1.20
2019-03-04T09:43:27.920Z,0.83
2019-03-04T09:45:56.857Z,0.90
2019-03-04T09:48:25.864Z,1.00
2019-03-04T09:50:54.409Z,0.90
2019-03-04T09:53:23.134Z,1.00
2019-03-04T09:55:51.825Z,1.00
2019-03-04T09:58:20.569Z,0.90
2019-03-04T10:00:58.102Z,1.00
2019-03-04T10:03:41.558Z,1.10
2019-03-04T10:06:25.141Z,0.87
2019-03-04T10:09:11.811Z,0.80
2019-03-04T10:11:55.555Z,0.80
2019-03-04T10:14:32.929Z,1.00
2019-03-04T10:17:19.728Z,1.03
2019-03-04T10:20:03.595Z,0.90
2019-03-04T10:22:37.865Z,0.90
2019-03-04T10:25:31.873Z,0.80
2019-03-04T10:28:25.876Z,0.70
2019-03-04T10:31:03.381Z,1.10
2019-03-04T10:34:07.917Z,0.97
2019-03-04T10:36:56.192Z,1.20
2019-03-04T10:39:43.042Z,0.80
2019-03-04T10:42:31.274Z,1.00
2019-03-04T10:45:14.169Z,0.90
2019-03-04T10:47:42.768Z,0.80
2019-03-04T10:50:11.550Z,1.00
2019-03-04T10:52:40.455Z,0.90
2019-03-04T10:55:12.907Z,0.90
2019-03-04T10:57:41.740Z,0.90
2019-03-04T11:00:15.494Z,1.30
2019-03-04T11:02:44.145Z,1.00
2019-03-04T11:05:12.854Z,0.90
2019-03-04T11:07:41.596Z,0.87
2019-03-04T11:10:14.748Z,0.90
2019-03-04T11:12:43.793Z,1.10
2019-03-04T11:15:24.513Z,1.00
2019-03-04T11:17:54.479Z,1.20
2019-03-04T11:20:23.853Z,0.87
2019-03-04T11:22:52.698Z,1.00
2019-03-04T11:25:22.371Z,1.10
2019-03-04T11:27:51.083Z,1.20
2019-03-04T11:30:25.157Z,1.30
2019-03-04T11:32:53.773Z,1.10
2019-03-04T11:35:22.709Z,1.20
2019-03-04T11:37:51.826Z,1.10
2019-03-04T11:40:30.743Z,0.87
2019-03-04T11:42:59.741Z,0.90
2019-03-04T11:45:28.677Z,0.80
2019-03-04T11:47:58.107Z,0.97
2019-03-04T11:50:26.819Z,1.03
2019-03-04T11:52:55.100Z,1.10
2019-03-04T11:55:24.939Z,0.97
2019-03-04T11:57:53.239Z,1.10
2019-03-04T12:00:24.281Z,1.03
2019-03-04T12:02:52.537Z,1.03
2019-03-04T12:05:21.228Z,1.10
2019-03-04T12:07:49.553Z,1.10
2019-03-04T12:10:18.499Z,1.13
2019-03-04T12:12:46.924Z,1.10
2019-03-04T12:15:16.416Z,1.20
2019-03-04T12:17:44.982Z,1.20
2019-03-04T12:20:13.890Z,0.90
2019-03-04T12:22:42.618Z,1.20
2019-03-04T12:25:12.998Z,0.97
2019-03-04T12:27:41.648Z,1.00
2019-03-04T12:30:21.528Z,1.00
2019-03-04T12:32:51.249Z,1.33
2019-03-04T12:35:20.945Z,1.03
2019-03-04T12:37:50.114Z,1.20
2019-03-04T12:40:22.852Z,1.23
2019-03-04T12:42:51.521Z,1.30
2019-03-04T12:45:22.282Z,1.37
2019-03-04T12:47:51.009Z,1.10
2019-03-04T12:50:28.232Z,1.20
2019-03-04T12:52:58.057Z,1.57
2019-03-04T12:55:26.849Z,1.30
2019-03-04T12:57:55.706Z,1.50
2019-03-04T13:00:34.921Z,1.40
2019-03-04T13:03:03.639Z,1.30
2019-03-04T13:05:32.857Z,1.50
2019-03-04T13:08:02.107Z,1.40
2019-03-04T13:10:31.771Z,1.40
2019-03-04T13:13:01.134Z,1.60
2019-03-04T13:15:30.385Z,1.30
2019-03-04T13:17:58.736Z,1.63
2019-03-04T13:20:27.895Z,1.10
2019-03-04T13:22:56.227Z,1.40
2019-03-04T13:25:24.444Z,1.70
2019-03-04T13:27:52.705Z,1.53
2019-03-04T13:30:27.544Z,1.40
2019-03-04T13:32:55.819Z,1.63
2019-03-04T13:35:28.608Z,1.47
2019-03-04T13:37:57.556Z,1.20
2019-03-04T13:40:27.306Z,1.50
2019-03-04T13:42:55.952Z,1.57
2019-03-04T13:45:24.765Z,1.30
2019-03-04T13:47:53.827Z,1.57
2019-03-04T13:50:29.757Z,1.40
2019-03-04T13:52:59.574Z,1.20
2019-03-04T13:55:28.290Z,1.27
2019-03-04T13:57:57.617Z,1.10
2019-03-04T14:00:34.877Z,1.20
2019-03-04T14:03:03.609Z,1.30
2019-03-04T14:05:32.322Z,1.43
2019-03-04T14:08:00.963Z,1.57
2019-03-04T14:10:46.742Z,1.30
2019-03-04T14:13:15.456Z,1.00
2019-03-04T14:15:47.924Z,1.10
2019-03-04T14:18:16.141Z,1.13
2019-03-04T14:20:44.464Z,1.07
2019-03-04T14:23:12.690Z,1.13
2019-03-04T14:25:40.928Z,1.57
2019-03-04T14:28:09.231Z,1.00
2019-03-04T14:30:37.559Z,1.10
2019-03-04T14:33:05.921Z,1.20
2019-03-04T14:35:34.343Z,1.03
2019-03-04T14:38:02.573Z,1.10
2019-03-04T14:40:30.907Z,1.00
2019-03-04T14:42:59.205Z,1.00
2019-03-04T14:45:27.925Z,1.13
2019-03-04T14:47:56.237Z,1.50
2019-03-04T14:50:24.548Z,1.50
2019-03-04T14:52:52.848Z,1.47
2019-03-04T14:55:22.644Z,1.70
2019-03-04T14:57:50.876Z,1.60
2019-03-04T15:00:25.139Z,1.60
2019-03-04T15:03:04.383Z,1.50
2019-03-04T15:05:32.718Z,1.40
2019-03-04T15:08:01.159Z,1.30
2019-03-04T15:10:30.356Z,1.30
2019-03-04T15:12:58.750Z,1.63
2019-03-04T15:15:27.794Z,1.30
2019-03-04T15:17:58.944Z,1.37
2019-03-04T15:20:28.358Z,1.33
2019-03-04T15:22:56.752Z,1.30
2019-03-04T15:25:27.727Z,1.47
2019-03-04T15:28:06.609Z,1.10
2019-03-04T15:30:34.994Z,1.07
2019-03-04T15:33:17.195Z,1.30
2019-03-04T15:35:38.046Z,1.50
2019-03-04T15:38:06.680Z,1.40
2019-03-04T15:40:35.783Z,1.10
2019-03-04T15:43:04.240Z,1.20
2019-03-04T15:45:33.685Z,1.13
2019-03-04T15:48:02.441Z,1.30
2019-03-04T15:50:31.013Z,1.20
2019-03-04T15:52:59.444Z,1.00
2019-03-04T15:55:27.867Z,1.33
2019-03-04T15:57:56.216Z,1.30
2019-03-04T16:00:24.601Z,1.27
2019-03-04T16:02:52.875Z,1.30
2019-03-04T16:05:21.190Z,1.00
2019-03-04T16:07:49.461Z,1.10
2019-03-04T16:10:18.684Z,1.30
2019-03-04T16:12:48.195Z,1.30
2019-03-04T16:15:19.017Z,1.20
2019-03-04T16:17:47.689Z,1.13
2019-03-04T16:20:17.003Z,1.20
2019-03-04T16:22:45.993Z,1.13
2019-03-04T16:25:14.352Z,1.37
2019-03-04T16:27:42.829Z,0.97
2019-03-04T16:30:20.890Z,0.97
2019-03-04T16:32:49.678Z,0.87
2019-03-04T16:35:17.996Z,1.17
2019-03-04T16:37:46.289Z,0.93
2019-03-04T16:40:16.101Z,0.70
2019-03-04T16:42:45.746Z,1.00
2019-03-04T16:45:21.946Z,0.90
2019-03-04T16:47:50.378Z,1.03
2019-03-04T16:50:25.892Z,1.20
2019-03-04T16:52:56.358Z,0.97
2019-03-04T16:55:24.617Z,1.20
2019-03-04T16:57:53.234Z,1.20
2019-03-04T17:00:22.217Z,0.60
2019-03-04T17:02:53.381Z,0.50
2019-03-04T17:05:22.991Z,0.50
2019-03-04T17:07:51.332Z,0.60
2019-03-04T17:10:20.879Z,1.00
2019-03-04T17:12:49.181Z,0.87
2019-03-04T17:15:21.697Z,0.90
2019-03-04T17:17:49.991Z,1.30
2019-03-04T17:20:18.534Z,1.43
2019-03-04T17:22:47.067Z,1.10
2019-03-04T17:25:16.272Z,1.00
2019-03-04T17:27:44.908Z,1.10
2019-03-04T17:30:17.206Z,0.70
2019-03-04T17:32:45.534Z,1.20
2019-03-04T17:35:15.443Z,1.10
2019-03-04T17:37:43.846Z,0.90
2019-03-04T17:40:13.480Z,0.90
2019-03-04T17:42:42.098Z,1.10
2019-03-04T17:45:11.566Z,0.90
2019-03-04T17:47:39.908Z,1.10
2019-03-04T17:50:10.014Z,1.13
2019-03-04T17:52:38.273Z,1.53
2019-03-04T17:55:08.044Z,1.40
2019-03-04T17:57:36.450Z,1.40
2019-03-04T18:00:06.294Z,1.33
2019-03-04T18:02:34.711Z,1.27
2019-03-04T18:05:03.482Z,1.40
2019-03-04T18:07:31.821Z,1.40
2019-03-04T18:10:00.290Z,1.50
2019-03-04T18:12:28.517Z,1.50
2019-03-04T18:14:56.855Z,1.67
2019-03-04T18:17:25.158Z,1.63
2019-03-04T18:19:53.417Z,1.70
2019-03-04T18:22:21.644Z,1.80
2019-03-04T18:24:50.055Z,1.60
2019-03-04T18:27:18.454Z,1.87
2019-03-04T18:29:51.054Z,1.70
2019-03-04T18:32:39.302Z,1.80
2019-03-04T18:35:36.779Z,1.50
2019-03-04T18:38:18.426Z,1.60
2019-03-04T18:40:48.309Z,1.50
2019-03-04T18:43:19.069Z,1.70
2019-03-04T18:45:51.787Z,1.63
2019-03-04T18:48:24.464Z,1.63
2019-03-04T18:50:53.095Z,1.57
2019-03-04T18:53:21.395Z,1.53
2019-03-04T18:55:49.772Z,1.70
2019-03-04T18:58:18.289Z,1.80
2019-03-04T19:00:47.792Z,1.60
2019-03-04T19:03:16.706Z,1.40
2019-03-04T19:05:45.155Z,1.60
2019-03-04T19:08:16.596Z,1.40
2019-03-04T19:10:46.197Z,1.50
2019-03-04T19:13:14.751Z,1.70
2019-03-04T19:15:43.122Z,1.63
2019-03-04T19:18:11.814Z,1.60
2019-03-04T19:20:45.950Z,1.40
2019-03-04T19:23:14.731Z,1.63
2019-03-04T19:25:43.271Z,12.07
2019-03-04T19:28:11.705Z,5.90
2019-03-04T19:30:40.185Z,3.73
2019-03-04T19:33:09.034Z,1.23
2019-03-04T19:35:37.262Z,2.60
2019-03-04T19:38:05.628Z,1.53
2019-03-04T19:40:34.343Z,1.33
2019-03-04T19:43:02.672Z,1.70
2019-03-04T19:45:31.190Z,1.40
2019-03-04T19:47:59.628Z,1.40
2019-03-04T19:50:28.252Z,1.30
2019-03-04T19:52:56.572Z,1.63
2019-03-04T19:55:25.190Z,1.90
2019-03-04T19:57:54.260Z,1.20
2019-03-04T20:03:06.451Z,1.20
2019-03-04T20:05:35.078Z,1.50
2019-03-04T20:08:04.500Z,1.40
2019-03-04T20:10:33.112Z,1.70
2019-03-04T20:13:01.523Z,1.60
2019-03-04T20:15:35.749Z,1.80
2019-03-04T20:18:06.006Z,1.57
2019-03-04T20:20:36.070Z,1.90
2019-03-04T20:23:04.506Z,1.77
2019-03-04T20:25:34.173Z,2.60
2019-03-04T20:28:02.934Z,3.37
2019-03-04T20:30:31.282Z,3.33
2019-03-04T20:32:59.661Z,2.17
2019-03-04T20:35:28.297Z,2.20
2019-03-04T20:38:07.083Z,2.07
2019-03-04T20:40:35.617Z,2.33
2019-03-04T20:43:04.146Z,2.17
2019-03-04T20:45:32.443Z,2.47
2019-03-04T20:48:00.852Z,2.40
2019-03-04T20:50:29.682Z,2.50
2019-03-04T20:52:57.949Z,2.17
2019-03-04T20:55:26.288Z,2.33
2019-03-04T20:57:55.147Z,2.67
2019-03-04T21:00:32.789Z,2.77
2019-03-04T21:03:02.708Z,2.43
2019-03-04T21:05:31.375Z,2.40
2019-03-04T21:08:00.953Z,2.97
2019-03-04T21:10:29.232Z,2.43
2019-03-04T21:12:59.244Z,3.00
2019-03-04T21:15:28.083Z,2.53
2019-03-04T21:17:58.840Z,3.07
2019-03-04T21:20:27.536Z,2.90
2019-03-04T21:22:55.805Z,2.97
2019-03-04T21:25:43.915Z,2.90
2019-03-04T21:28:19.381Z,2.53
2019-03-04T21:30:58.904Z,3.13
2019-03-04T21:33:28.845Z,3.37
2019-03-04T21:36:01.397Z,2.83
2019-03-04T21:38:29.630Z,2.97
2019-03-04T21:41:00.544Z,2.90
2019-03-04T21:43:32.778Z,2.97
2019-03-04T21:46:02.385Z,2.80
2019-03-04T21:48:32.164Z,2.90
2019-03-04T21:51:10.846Z,3.30
2019-03-04T21:53:41.129Z,2.90
2019-03-04T21:56:14.258Z,2.50
2019-03-04T21:58:43.371Z,2.77
2019-03-04T22:01:19.167Z,2.80
2019-03-04T22:03:48.434Z,3.10
2019-03-04T22:06:18.508Z,3.00
2019-03-04T22:08:47.130Z,3.00
2019-03-04T22:11:15.519Z,2.80
2019-03-04T22:13:44.195Z,2.70
2019-03-04T22:16:12.582Z,3.00
2019-03-04T22:18:40.889Z,2.73
2019-03-04T22:21:16.540Z,3.10
2019-03-04T22:23:41.590Z,3.37
2019-03-04T22:26:09.954Z,3.33
2019-03-04T22:28:38.237Z,3.53
2019-03-04T22:31:07.221Z,3.73
2019-03-04T22:33:35.526Z,3.70
2019-03-04T22:36:03.915Z,3.53
2019-03-04T22:38:32.226Z,3.63
2019-03-04T22:41:00.578Z,4.00
2019-03-04T22:43:28.961Z,3.67
2019-03-04T22:45:57.277Z,3.57
2019-03-04T22:48:25.594Z,3.43
2019-03-04T22:50:53.822Z,3.63
2019-03-04T22:53:22.099Z,3.97
2019-03-04T22:55:50.418Z,3.90
2019-03-04T22:58:28.243Z,3.37
2019-03-04T23:01:00.709Z,3.60
2019-03-04T23:03:30.510Z,4.03
2019-03-04T23:06:00.279Z,3.67
2019-03-04T23:08:28.588Z,2.97
2019-03-04T23:10:56.882Z,2.13
2019-03-04T23:13:29.602Z,2.30
2019-03-04T23:15:58.699Z,2.40
2019-03-04T23:18:27.099Z,1.50
2019-03-04T23:20:55.405Z,1.40
2019-03-04T23:23:23.671Z,1.50
2019-03-04T23:25:51.915Z,1.33
2019-03-04T23:28:20.297Z,1.53
2019-03-04T23:30:48.861Z,1.50
2019-03-04T23:33:17.124Z,1.40
2019-03-04T23:35:45.385Z,1.57
2019-03-04T23:38:13.668Z,1.57
2019-03-04T23:40:42.069Z,1.50
2019-03-04T23:43:10.357Z,2.00
2019-03-04T23:45:38.694Z,1.80
2019-03-04T23:48:06.982Z,2.10
2019-03-04T23:50:35.487Z,2.50
2019-03-04T23:53:04.096Z,2.30
2019-03-04T23:55:32.417Z,2.20
2019-03-04T23:58:00.726Z,1.80
